createdAt,value
2023-05-20T00:00:09.270Z,100097.36
2023-05-20T00:01:01.141Z,100098.35
2023-05-20T00:01:33.189Z,100098.75
2023-05-20T00:02:05.646Z,100096.70
2023-05-20T00:02:37.763Z,100098.65
2023-05-20T00:03:10.234Z,100095.65
2023-05-20T00:03:42.585Z,100093.84
2023-05-20T00:04:14.903Z,100098.36
2023-05-20T00:04:47.366Z,100094.79
2023-05-20T00:05:19.788Z,100094.55
2023-05-20T00:05:51.760Z,100092.56
2023-05-20T00:06:23.805Z,100095.92
2023-05-20T00:06:55.862Z,100095.23
2023-05-20T00:07:28.304Z,100094.64
2023-05-20T00:08:00.417Z,100094.13
2023-05-20T00:08:32.555Z,100092.92
2023-05-20T00:09:04.569Z,100091.17
2023-05-20T00:09:39.041Z,100093.94
2023-05-20T00:10:11.316Z,100090.85
2023-05-20T00:10:43.372Z,100088.86
2023-05-20T00:11:15.341Z,100089.48
2023-05-20T00:11:47.385Z,100088.60
2023-05-20T00:12:19.356Z,100085.73
2023-05-20T00:12:51.388Z,100086.21
2023-05-20T00:13:24.378Z,100084.80
2023-05-20T00:13:56.309Z,100085.03
2023-05-20T00:14:28.264Z,100084.74
2023-05-20T00:15:01.535Z,100082.21
2023-05-20T00:15:35.814Z,100078.70
2023-05-20T00:16:08.175Z,100082.81
2023-05-20T00:16:40.787Z,100081.46
2023-05-20T00:17:12.733Z,100079.52
2023-05-20T00:17:44.665Z,100078.69
2023-05-20T00:18:16.619Z,100078.92
2023-05-20T00:18:48.702Z,100077.02
2023-05-20T00:19:20.744Z,100074.62
2023-05-20T00:19:52.684Z,100073.04
2023-05-20T00:20:24.854Z,100072.30
2023-05-20T00:20:56.921Z,100070.14
2023-05-20T00:21:29.442Z,100073.27
2023-05-20T00:22:01.675Z,100072.23
2023-05-20T00:22:33.736Z,100076.79
2023-05-20T00:23:05.894Z,100076.65
2023-05-20T00:23:38.046Z,100075.11
2023-05-20T00:24:10.107Z,100073.66
2023-05-20T00:24:42.153Z,100076.25
2023-05-20T00:25:14.611Z,100072.99
2023-05-20T00:25:46.682Z,100072.40
2023-05-20T00:26:19.072Z,100073.33
2023-05-20T00:26:51.376Z,100075.08
2023-05-20T00:27:23.434Z,100076.75
2023-05-20T00:27:55.387Z,100077.97
2023-05-20T00:28:27.433Z,100077.61
2023-05-20T00:28:59.521Z,100079.52
2023-05-20T00:29:31.655Z,100078.79
2023-05-20T00:30:04.085Z,100080.21
2023-05-20T00:30:35.989Z,100076.85
2023-05-20T00:31:08.408Z,100079.79
2023-05-20T00:31:40.795Z,100077.15
2023-05-20T00:32:13.976Z,100078.40
2023-05-20T00:32:46.227Z,100076.89
2023-05-20T00:33:18.440Z,100078.59
2023-05-20T00:33:50.643Z,100076.35
2023-05-20T00:34:22.897Z,100075.99
2023-05-20T00:34:59.406Z,100078.60
2023-05-20T00:35:31.283Z,100078.63
2023-05-20T00:36:03.819Z,100073.89
2023-05-20T00:36:36.396Z,100075.83
2023-05-20T00:37:08.540Z,100075.50
2023-05-20T00:37:40.419Z,100076.95
2023-05-20T00:38:12.462Z,100075.05
2023-05-20T00:38:44.720Z,100072.96
2023-05-20T00:39:16.877Z,100074.09
2023-05-20T00:39:49.125Z,100074.89
2023-05-20T00:40:23.160Z,100073.27
2023-05-20T00:40:55.230Z,100072.67
2023-05-20T00:41:27.425Z,100068.02
2023-05-20T00:42:01.987Z,100072.08
2023-05-20T00:42:34.211Z,100066.52
2023-05-20T00:43:06.140Z,100069.58
2023-05-20T00:43:38.304Z,100070.92
2023-05-20T00:44:10.446Z,100071.77
2023-05-20T00:44:42.678Z,100071.64
2023-05-20T00:45:14.770Z,100071.13
2023-05-20T00:45:47.744Z,100069.94
2023-05-20T00:46:20.019Z,100069.05
2023-05-20T00:46:52.966Z,100069.11
2023-05-20T00:47:31.487Z,100067.08
2023-05-20T00:48:04.841Z,100066.41
2023-05-20T00:48:42.324Z,100068.23
2023-05-20T00:49:15.631Z,100071.26
2023-05-20T00:49:50.786Z,100068.02
2023-05-20T00:50:23.098Z,100064.44
2023-05-20T00:50:55.448Z,100069.17
2023-05-20T00:51:27.931Z,100068.19
2023-05-20T00:51:59.930Z,100070.33
2023-05-20T00:52:32.840Z,100072.27
2023-05-20T00:53:06.250Z,100068.09
2023-05-20T00:53:38.778Z,100074.05
2023-05-20T00:54:11.322Z,100073.89
2023-05-20T00:54:43.507Z,100077.84
2023-05-20T00:55:15.773Z,100079.27
2023-05-20T00:55:48.002Z,100078.96
2023-05-20T00:56:21.820Z,100077.84
2023-05-20T00:56:54.575Z,100080.66
2023-05-20T00:57:27.175Z,100079.52
2023-05-20T00:57:59.503Z,100077.44
2023-05-20T00:58:32.486Z,100075.17
2023-05-20T00:59:05.363Z,100075.86
2023-05-20T00:59:38.377Z,100077.38
2023-05-20T01:00:11.525Z,100078.42
2023-05-20T01:00:43.950Z,100076.81
2023-05-20T01:01:16.153Z,100081.20
2023-05-20T01:01:48.977Z,100077.66
2023-05-20T01:02:22.060Z,100080.42
2023-05-20T01:02:56.823Z,100083.43
2023-05-20T01:03:29.979Z,100080.47
2023-05-20T01:04:02.718Z,100083.02
2023-05-20T01:04:34.806Z,100080.08
2023-05-20T01:05:07.552Z,100078.17
2023-05-20T01:05:41.516Z,100077.65
2023-05-20T01:06:14.402Z,100072.74
2023-05-20T01:06:47.587Z,100078.16
2023-05-20T01:07:20.188Z,100077.54
2023-05-20T01:07:52.090Z,100075.73
2023-05-20T01:08:28.455Z,100075.69
2023-05-20T01:09:00.925Z,100074.72
2023-05-20T01:09:33.736Z,100077.88
2023-05-20T01:10:06.954Z,100079.02
2023-05-20T01:10:42.381Z,100078.34
2023-05-20T01:12:08.765Z,100075.86
2023-05-20T01:12:50.357Z,100080.67
2023-05-20T01:13:27.817Z,100079.55
2023-05-20T01:14:06.196Z,100077.55
2023-05-20T01:14:46.812Z,100076.81
2023-05-20T01:15:20.415Z,100073.92
2023-05-20T01:15:56.112Z,100078.17
2023-05-20T01:16:31.356Z,100073.08
2023-05-20T01:17:09.397Z,100075.15
2023-05-20T01:17:46.873Z,100073.73
2023-05-20T01:18:20.330Z,100075.48
2023-05-20T01:18:55.744Z,100073.32
2023-05-20T01:19:45.320Z,100076.60
2023-05-20T01:20:18.595Z,100074.23
2023-05-20T01:20:54.469Z,100072.83
2023-05-20T01:21:27.620Z,100071.95
2023-05-20T01:22:00.904Z,100072.80
2023-05-20T01:22:33.058Z,100075.39
2023-05-20T01:23:05.097Z,100071.98
2023-05-20T01:23:41.246Z,100070.94
2023-05-20T01:24:13.301Z,100071.88
2023-05-20T01:24:49.464Z,100070.77
2023-05-20T01:25:22.338Z,100072.64
2023-05-20T01:25:54.378Z,100070.90
2023-05-20T01:26:26.725Z,100072.30
2023-05-20T01:26:59.083Z,100072.28
2023-05-20T01:27:31.250Z,100072.50
2023-05-20T01:28:04.280Z,100069.70
2023-05-20T01:28:38.863Z,100071.25
2023-05-20T01:29:13.540Z,100070.77
2023-05-20T01:29:47.977Z,100070.10
2023-05-20T01:30:20.920Z,100069.80
2023-05-20T01:30:58.620Z,100072.96
2023-05-20T01:31:36.461Z,100072.23
2023-05-20T01:32:15.818Z,100071.75
2023-05-20T01:32:52.347Z,100069.67
2023-05-20T01:33:26.167Z,100067.97
2023-05-20T01:33:59.460Z,100066.40
2023-05-20T01:34:33.558Z,100066.92
2023-05-20T01:35:07.030Z,100067.82
2023-05-20T01:35:40.980Z,100068.55
2023-05-20T01:36:14.023Z,100067.70
2023-05-20T01:36:46.981Z,100067.09
2023-05-20T01:37:21.697Z,100064.45
2023-05-20T01:37:55.522Z,100068.43
2023-05-20T01:38:28.373Z,100071.52
2023-05-20T01:39:02.614Z,100072.20
2023-05-20T01:39:41.264Z,100071.79
2023-05-20T01:40:16.122Z,100070.89
2023-05-20T01:40:49.569Z,100068.09
2023-05-20T01:41:23.789Z,100069.80
2023-05-20T01:41:56.638Z,100073.65
2023-05-20T01:42:29.204Z,100069.27
2023-05-20T01:43:02.491Z,100073.83
2023-05-20T01:43:34.939Z,100069.41
2023-05-20T01:44:07.644Z,100069.25
2023-05-20T01:44:39.760Z,100069.05
2023-05-20T01:45:12.542Z,100067.00
2023-05-20T01:45:45.102Z,100065.98
2023-05-20T01:46:17.224Z,100065.71
2023-05-20T01:46:50.672Z,100063.20
2023-05-20T01:47:22.792Z,100061.38
2023-05-20T01:47:55.262Z,100063.17
2023-05-20T01:48:27.312Z,100063.45
2023-05-20T01:49:00.072Z,100061.70
2023-05-20T01:49:32.116Z,100060.13
2023-05-20T01:50:04.697Z,100058.65
2023-05-20T01:50:37.969Z,100060.79
2023-05-20T01:51:10.033Z,100059.67
2023-05-20T01:51:41.975Z,100055.05
2023-05-20T01:52:13.928Z,100057.00
2023-05-20T01:52:46.077Z,100056.96
2023-05-20T01:53:18.120Z,100056.40
2023-05-20T01:53:50.171Z,100055.15
2023-05-20T01:54:22.140Z,100053.87
2023-05-20T01:54:54.207Z,100052.13
2023-05-20T01:55:26.427Z,100054.07
2023-05-20T01:55:58.681Z,100051.92
2023-05-20T01:56:30.975Z,100051.40
2023-05-20T01:57:03.208Z,100051.40
2023-05-20T01:57:35.588Z,100049.09
2023-05-20T01:58:07.612Z,100047.19
2023-05-20T01:58:39.585Z,100045.64
2023-05-20T01:59:12.036Z,100046.36
2023-05-20T01:59:44.284Z,100043.77
2023-05-20T02:00:16.555Z,100048.15
2023-05-20T02:00:48.828Z,100045.38
2023-05-20T02:01:21.063Z,100045.77
2023-05-20T02:01:53.269Z,100042.52
2023-05-20T02:02:25.767Z,100047.45
2023-05-20T02:02:57.880Z,100048.79
2023-05-20T02:03:30.228Z,100047.62
2023-05-20T02:04:02.467Z,100047.39
2023-05-20T02:04:34.487Z,100048.14
2023-05-20T02:05:07.491Z,100047.48
2023-05-20T02:05:39.594Z,100048.73
2023-05-20T02:06:11.890Z,100049.08
2023-05-20T02:06:43.990Z,100046.51
2023-05-20T02:07:18.278Z,100046.91
2023-05-20T02:07:50.166Z,100046.10
2023-05-20T02:08:22.119Z,100045.84
2023-05-20T02:08:54.074Z,100044.26
2023-05-20T02:09:26.199Z,100046.77
2023-05-20T02:09:58.477Z,100045.25
2023-05-20T02:10:30.542Z,100045.28
2023-05-20T02:11:02.501Z,100044.13
2023-05-20T02:11:34.560Z,100043.48
2023-05-20T02:12:07.720Z,100043.35
2023-05-20T02:12:39.752Z,100042.41
2023-05-20T02:13:11.563Z,100044.06
2023-05-20T02:13:43.589Z,100043.44
2023-05-20T02:14:15.619Z,100044.03
2023-05-20T02:14:48.978Z,100042.91
2023-05-20T02:15:21.265Z,100043.34
2023-05-20T02:15:53.414Z,100047.11
2023-05-20T02:16:25.797Z,100044.27
2023-05-20T02:16:58.104Z,100045.88
2023-05-20T02:17:30.600Z,100046.27
2023-05-20T02:18:05.126Z,100045.51
2023-05-20T02:18:37.040Z,100050.11
2023-05-20T02:19:12.395Z,100048.16
2023-05-20T02:19:46.153Z,100048.39
2023-05-20T02:20:18.726Z,100050.80
2023-05-20T02:20:50.453Z,100052.48
2023-05-20T02:21:22.499Z,100053.41
2023-05-20T02:21:54.483Z,100054.86
2023-05-20T02:22:26.428Z,100054.42
2023-05-20T02:22:58.679Z,100052.72
2023-05-20T02:23:33.868Z,100052.30
2023-05-20T02:24:07.192Z,100056.60
2023-05-20T02:24:39.444Z,100053.40
2023-05-20T02:25:11.920Z,100056.23
2023-05-20T02:25:44.330Z,100055.31
2023-05-20T02:26:17.050Z,100052.92
2023-05-20T02:26:50.953Z,100055.02
2023-05-20T02:27:23.012Z,100055.64
2023-05-20T02:27:55.236Z,100054.13
2023-05-20T02:28:27.295Z,100056.27
2023-05-20T02:28:59.459Z,100055.46
2023-05-20T02:29:31.700Z,100054.84
2023-05-20T02:30:04.158Z,100056.29
2023-05-20T02:30:39.701Z,100053.39
2023-05-20T02:31:12.053Z,100053.49
2023-05-20T02:31:44.032Z,100058.77
2023-05-20T02:32:16.163Z,100054.12
2023-05-20T02:32:48.284Z,100053.62
2023-05-20T02:33:20.713Z,100057.06
2023-05-20T02:33:53.503Z,100056.10
2023-05-20T02:34:26.326Z,100055.08
2023-05-20T02:34:59.082Z,100054.06
2023-05-20T02:35:31.279Z,100055.99
2023-05-20T02:36:04.023Z,100055.39
2023-05-20T02:36:36.060Z,100053.48
2023-05-20T02:37:08.306Z,100054.73
2023-05-20T02:37:40.574Z,100053.66
2023-05-20T02:38:12.936Z,100054.70
2023-05-20T02:38:45.102Z,100054.02
2023-05-20T02:39:17.252Z,100052.39
2023-05-20T02:39:49.695Z,100053.09
2023-05-20T02:40:22.651Z,100052.63
2023-05-20T02:40:56.379Z,100054.94
2023-05-20T02:41:28.508Z,100054.36
2023-05-20T02:42:00.885Z,100053.21
2023-05-20T02:42:32.960Z,100057.09
2023-05-20T02:43:05.802Z,100059.13
2023-05-20T02:43:38.766Z,100058.11
2023-05-20T02:44:10.827Z,100057.38
2023-05-20T02:44:42.765Z,100057.46
2023-05-20T02:45:14.733Z,100056.45
2023-05-20T02:45:47.228Z,100057.62
2023-05-20T02:46:19.506Z,100056.85
2023-05-20T02:46:51.793Z,100051.42
2023-05-20T02:47:24.998Z,100056.02
2023-05-20T02:47:57.312Z,100051.33
2023-05-20T02:48:29.487Z,100053.27
2023-05-20T02:49:01.439Z,100055.07
2023-05-20T02:49:33.506Z,100054.66
2023-05-20T02:50:06.671Z,100055.48
2023-05-20T02:50:39.853Z,100057.89
2023-05-20T02:51:12.000Z,100056.58
2023-05-20T02:51:44.063Z,100056.11
2023-05-20T02:52:16.212Z,100055.85
2023-05-20T02:52:48.154Z,100057.83
2023-05-20T02:53:20.611Z,100056.69
2023-05-20T02:53:52.878Z,100055.36
2023-05-20T02:54:25.337Z,100057.70
2023-05-20T02:54:57.903Z,100052.92
2023-05-20T02:55:29.758Z,100051.25
2023-05-20T02:56:03.962Z,100052.27
2023-05-20T02:56:36.319Z,100047.53
2023-05-20T02:57:08.493Z,100048.78
2023-05-20T02:57:40.813Z,100050.66
2023-05-20T02:58:13.086Z,100052.73
2023-05-20T02:58:45.029Z,100049.23
2023-05-20T02:59:17.404Z,100050.63
2023-05-20T02:59:49.657Z,100050.56
2023-05-20T03:00:23.323Z,100051.94
2023-05-20T03:00:57.455Z,100050.56
2023-05-20T03:01:29.690Z,100046.15
2023-05-20T03:02:02.864Z,100048.65
2023-05-20T03:02:34.960Z,100046.74
2023-05-20T03:03:07.948Z,100047.11
2023-05-20T03:03:40.536Z,100049.58
2023-05-20T03:04:12.643Z,100046.39
2023-05-20T03:04:47.062Z,100048.82
2023-05-20T03:05:19.382Z,100046.88
2023-05-20T03:05:51.522Z,100050.16
2023-05-20T03:06:23.786Z,100048.81
2023-05-20T03:06:57.614Z,100048.73
2023-05-20T03:07:30.061Z,100050.30
2023-05-20T03:08:02.231Z,100050.04
2023-05-20T03:08:34.411Z,100050.30
2023-05-20T03:09:06.421Z,100048.52
2023-05-20T03:09:38.659Z,100050.57
2023-05-20T03:10:10.719Z,100051.89
2023-05-20T03:10:43.017Z,100052.70
2023-05-20T03:11:15.734Z,100051.75
2023-05-20T03:11:48.219Z,100052.08
2023-05-20T03:12:20.354Z,100052.91
2023-05-20T03:12:52.494Z,100051.84
2023-05-20T03:13:24.460Z,100052.09
2023-05-20T03:13:56.502Z,100051.33
2023-05-20T03:14:28.649Z,100049.85
2023-05-20T03:15:00.827Z,100049.95
2023-05-20T03:15:33.033Z,100051.31
2023-05-20T03:16:05.542Z,100049.46
2023-05-20T03:16:37.666Z,100053.60
2023-05-20T03:17:11.259Z,100052.18
2023-05-20T03:17:43.373Z,100056.36
2023-05-20T03:18:15.233Z,100052.75
2023-05-20T03:18:47.390Z,100058.52
2023-05-20T03:19:19.616Z,100058.67
2023-05-20T03:19:51.677Z,100060.26
2023-05-20T03:20:23.889Z,100061.94
2023-05-20T03:20:55.952Z,100063.45
2023-05-20T03:21:28.918Z,100065.73
2023-05-20T03:22:01.850Z,100066.31
2023-05-20T03:22:33.701Z,100068.88
2023-05-20T03:23:06.395Z,100065.52
2023-05-20T03:23:38.410Z,100068.36
2023-05-20T03:24:10.363Z,100067.30
2023-05-20T03:24:43.973Z,100070.07
2023-05-20T03:25:15.826Z,100071.61
2023-05-20T03:25:48.291Z,100072.94
2023-05-20T03:26:21.455Z,100070.38
2023-05-20T03:26:53.345Z,100071.42
2023-05-20T03:27:28.473Z,100071.48
2023-05-20T03:28:00.390Z,100070.55
2023-05-20T03:28:32.354Z,100073.13
2023-05-20T03:29:05.337Z,100072.85
2023-05-20T03:29:37.359Z,100071.74
2023-05-20T03:30:10.037Z,100072.94
2023-05-20T03:30:41.882Z,100074.59
2023-05-20T03:31:13.815Z,100073.59
2023-05-20T03:31:46.103Z,100071.53
2023-05-20T03:32:18.137Z,100072.32
2023-05-20T03:32:50.434Z,100075.38
2023-05-20T03:33:25.823Z,100075.68
2023-05-20T03:33:57.767Z,100078.41
2023-05-20T03:34:30.023Z,100075.48
2023-05-20T03:35:02.087Z,100077.52
2023-05-20T03:35:34.634Z,100075.88
2023-05-20T03:36:06.929Z,100073.31
2023-05-20T03:36:39.162Z,100076.77
2023-05-20T03:37:11.082Z,100078.41
2023-05-20T03:37:43.372Z,100075.39
2023-05-20T03:38:15.520Z,100077.96
2023-05-20T03:38:47.767Z,100078.75
2023-05-20T03:39:19.715Z,100072.31
2023-05-20T03:39:51.784Z,100075.68
2023-05-20T03:40:23.827Z,100075.89
2023-05-20T03:40:55.786Z,100078.42
2023-05-20T03:41:28.256Z,100076.02
2023-05-20T03:42:00.512Z,100078.85
2023-05-20T03:42:33.878Z,100078.23
2023-05-20T03:43:06.448Z,100082.80
2023-05-20T03:43:38.397Z,100080.52
2023-05-20T03:44:10.636Z,100079.67
2023-05-20T03:44:42.594Z,100081.98
2023-05-20T03:45:14.495Z,100081.95
2023-05-20T03:45:46.826Z,100084.95
2023-05-20T03:46:19.003Z,100084.65
2023-05-20T03:46:51.085Z,100084.68
2023-05-20T03:47:23.173Z,100085.31
2023-05-20T03:47:55.931Z,100085.68
2023-05-20T03:48:27.876Z,100085.91
2023-05-20T03:49:01.776Z,100082.84
2023-05-20T03:49:34.120Z,100086.92
2023-05-20T03:50:07.411Z,100085.31
2023-05-20T03:50:39.465Z,100084.52
2023-05-20T03:51:11.402Z,100083.23
2023-05-20T03:51:43.654Z,100082.02
2023-05-20T03:52:15.722Z,100080.18
2023-05-20T03:52:47.676Z,100077.38
2023-05-20T03:53:20.533Z,100079.52
2023-05-20T03:53:52.490Z,100078.73
2023-05-20T03:54:24.747Z,100079.48
2023-05-20T03:54:57.140Z,100076.89
2023-05-20T03:55:29.163Z,100078.17
2023-05-20T03:56:01.197Z,100079.26
2023-05-20T03:56:33.373Z,100080.38
2023-05-20T03:57:05.714Z,100083.70
2023-05-20T03:57:38.016Z,100080.44
2023-05-20T03:58:10.221Z,100082.28
2023-05-20T03:58:42.613Z,100081.33
2023-05-20T03:59:14.861Z,100080.33
2023-05-20T03:59:46.796Z,100079.02
2023-05-20T04:00:18.846Z,100076.16
2023-05-20T04:00:50.792Z,100076.73
2023-05-20T04:01:25.298Z,100076.75
2023-05-20T04:01:57.508Z,100081.11
2023-05-20T04:02:30.030Z,100078.69
2023-05-20T04:03:02.826Z,100078.33
2023-05-20T04:03:35.016Z,100079.92
2023-05-20T04:04:07.302Z,100081.98
2023-05-20T04:04:42.872Z,100080.23
2023-05-20T04:05:15.134Z,100081.19
2023-05-20T04:05:48.171Z,100078.91
2023-05-20T04:06:22.164Z,100082.20
2023-05-20T04:06:54.229Z,100084.12
2023-05-20T04:07:26.266Z,100086.91
2023-05-20T04:07:58.547Z,100087.14
2023-05-20T04:08:31.307Z,100088.40
2023-05-20T04:09:03.750Z,100088.27
2023-05-20T04:09:36.802Z,100085.36
2023-05-20T04:10:09.737Z,100088.92
2023-05-20T04:10:44.728Z,100089.30
2023-05-20T04:11:16.778Z,100090.77
2023-05-20T04:11:49.139Z,100091.42
2023-05-20T04:12:21.106Z,100092.60
2023-05-20T04:12:53.752Z,100094.91
2023-05-20T04:13:25.666Z,100092.83
2023-05-20T04:14:00.024Z,100094.73
2023-05-20T04:14:34.576Z,100094.55
2023-05-20T04:15:07.223Z,100093.50
2023-05-20T04:15:39.339Z,100094.65
2023-05-20T04:16:12.333Z,100090.94
2023-05-20T04:16:45.337Z,100092.05
2023-05-20T04:17:17.329Z,100095.84
2023-05-20T04:17:50.239Z,100092.03
2023-05-20T04:18:22.257Z,100093.84
2023-05-20T04:18:54.755Z,100091.86
2023-05-20T04:19:28.080Z,100094.89
2023-05-20T04:20:00.343Z,100094.36
2023-05-20T04:20:32.958Z,100095.09
2023-05-20T04:21:05.074Z,100091.79
2023-05-20T04:21:37.134Z,100093.42
2023-05-20T04:22:09.390Z,100091.00
2023-05-20T04:22:41.735Z,100093.33
2023-05-20T04:23:13.794Z,100093.13
2023-05-20T04:23:46.054Z,100093.22
2023-05-20T04:24:18.001Z,100093.29
2023-05-20T04:24:50.164Z,100087.80
2023-05-20T04:25:22.320Z,100084.85
2023-05-20T04:25:54.874Z,100089.29
2023-05-20T04:26:27.020Z,100089.13
2023-05-20T04:26:59.007Z,100084.10
2023-05-20T04:27:33.377Z,100083.95
2023-05-20T04:28:05.537Z,100081.05
2023-05-20T04:28:38.598Z,100082.98
2023-05-20T04:29:11.587Z,100082.06
2023-05-20T04:29:47.137Z,100083.38
2023-05-20T04:30:19.676Z,100082.58
2023-05-20T04:31:04.237Z,100082.29
2023-05-20T04:31:36.300Z,100081.19
2023-05-20T04:32:10.691Z,100083.80
2023-05-20T04:32:42.990Z,100083.59
2023-05-20T04:33:15.806Z,100083.10
2023-05-20T04:33:47.885Z,100083.96
2023-05-20T04:34:26.415Z,100081.78
2023-05-20T04:34:59.537Z,100082.57
2023-05-20T04:35:31.881Z,100085.24
2023-05-20T04:36:06.729Z,100085.77
2023-05-20T04:36:39.308Z,100086.39
2023-05-20T04:37:12.862Z,100085.38
2023-05-20T04:37:47.893Z,100089.06
2023-05-20T04:38:19.841Z,100089.38
2023-05-20T04:38:51.917Z,100088.90
2023-05-20T04:39:23.979Z,100086.88
2023-05-20T04:39:56.195Z,100084.77
2023-05-20T04:40:28.568Z,100086.08
2023-05-20T04:41:01.351Z,100087.16
2023-05-20T04:41:33.381Z,100085.42
2023-05-20T04:42:06.177Z,100085.55
2023-05-20T04:42:38.400Z,100088.71
2023-05-20T04:43:10.774Z,100084.62
2023-05-20T04:43:43.730Z,100087.01
2023-05-20T04:44:15.858Z,100084.58
2023-05-20T04:44:48.591Z,100088.94
2023-05-20T04:45:22.959Z,100085.38
2023-05-20T04:45:59.432Z,100083.52
2023-05-20T04:46:31.680Z,100084.08
2023-05-20T04:47:04.092Z,100082.32
2023-05-20T04:47:38.642Z,100081.17
2023-05-20T04:48:11.070Z,100081.63
2023-05-20T04:48:47.684Z,100083.82
2023-05-20T04:49:19.822Z,100085.36
2023-05-20T04:49:52.697Z,100084.95
2023-05-20T04:50:24.963Z,100085.12
2023-05-20T04:50:57.100Z,100083.86
2023-05-20T04:51:29.861Z,100082.25
2023-05-20T04:52:02.343Z,100085.58
2023-05-20T04:52:34.103Z,100083.34
2023-05-20T04:53:06.026Z,100085.58
2023-05-20T04:53:38.279Z,100083.99
2023-05-20T04:54:10.442Z,100082.50
2023-05-20T04:54:42.785Z,100086.33
2023-05-20T04:55:15.798Z,100082.99
2023-05-20T04:55:49.394Z,100081.39
2023-05-20T04:56:22.179Z,100080.95
2023-05-20T04:56:54.182Z,100078.84
2023-05-20T04:57:27.072Z,100080.76
2023-05-20T04:57:59.206Z,100078.37
2023-05-20T04:58:31.464Z,100080.48
2023-05-20T04:59:03.815Z,100075.94
2023-05-20T04:59:36.044Z,100080.66
2023-05-20T05:00:10.086Z,100077.36
2023-05-20T05:00:42.728Z,100076.59
2023-05-20T05:01:14.733Z,100081.87
2023-05-20T05:01:46.798Z,100081.08
2023-05-20T05:02:18.989Z,100082.43
2023-05-20T05:02:51.417Z,100082.44
2023-05-20T05:03:23.824Z,100083.68
2023-05-20T05:03:56.605Z,100084.59
2023-05-20T05:04:29.158Z,100084.52
2023-05-20T05:05:01.331Z,100084.52
2023-05-20T05:05:35.617Z,100086.70
2023-05-20T05:06:07.780Z,100085.64
2023-05-20T05:06:39.756Z,100087.22
2023-05-20T05:07:11.764Z,100088.20
2023-05-20T05:07:43.945Z,100088.30
2023-05-20T05:08:17.093Z,100089.23
2023-05-20T05:08:49.244Z,100086.95
2023-05-20T05:09:21.303Z,100086.04
2023-05-20T05:09:53.861Z,100091.27
2023-05-20T05:10:26.133Z,100087.98
2023-05-20T05:10:58.295Z,100089.91
2023-05-20T05:11:30.872Z,100086.95
2023-05-20T05:12:03.229Z,100086.20
2023-05-20T05:12:35.464Z,100087.02
2023-05-20T05:13:07.499Z,100086.61
2023-05-20T05:13:39.657Z,100084.64
2023-05-20T05:14:11.499Z,100081.81
2023-05-20T05:14:43.765Z,100084.25
2023-05-20T05:15:16.023Z,100083.32
2023-05-20T05:15:48.208Z,100083.80
2023-05-20T05:16:20.611Z,100086.16
2023-05-20T05:16:54.944Z,100082.20
2023-05-20T05:17:28.432Z,100084.84
2023-05-20T05:18:00.600Z,100082.52
2023-05-20T05:18:32.535Z,100087.92
2023-05-20T05:19:04.646Z,100085.44
2023-05-20T05:19:36.846Z,100085.34
2023-05-20T05:20:09.721Z,100084.27
2023-05-20T05:20:41.877Z,100085.09
2023-05-20T05:21:14.246Z,100086.06
2023-05-20T05:21:48.009Z,100087.46
2023-05-20T05:22:20.275Z,100087.43
2023-05-20T05:22:52.332Z,100086.27
2023-05-20T05:23:24.494Z,100089.86
2023-05-20T05:23:58.520Z,100089.71
2023-05-20T05:24:30.624Z,100086.55
2023-05-20T05:25:03.572Z,100088.66
2023-05-20T05:25:35.863Z,100088.09
2023-05-20T05:26:08.475Z,100087.65
2023-05-20T05:26:40.605Z,100083.89
2023-05-20T05:27:12.737Z,100084.86
2023-05-20T05:27:44.796Z,100085.43
2023-05-20T05:28:17.040Z,100088.95
2023-05-20T05:28:49.187Z,100087.66
2023-05-20T05:29:21.543Z,100090.84
2023-05-20T05:29:53.401Z,100089.42
2023-05-20T05:30:25.936Z,100089.45
2023-05-20T05:30:58.024Z,100091.23
2023-05-20T05:31:30.617Z,100087.73
2023-05-20T05:32:02.990Z,100088.88
2023-05-20T05:32:37.844Z,100087.87
2023-05-20T05:33:10.503Z,100091.46
2023-05-20T05:33:42.729Z,100091.02
2023-05-20T05:34:15.149Z,100089.73
2023-05-20T05:34:47.098Z,100092.41
2023-05-20T05:35:19.460Z,100089.97
2023-05-20T05:35:51.501Z,100088.52
2023-05-20T05:36:25.573Z,100091.11
2023-05-20T05:36:57.554Z,100089.66
2023-05-20T05:37:29.512Z,100089.85
2023-05-20T05:38:01.559Z,100094.52
2023-05-20T05:38:33.589Z,100092.16
2023-05-20T05:39:05.952Z,100095.63
2023-05-20T05:39:38.124Z,100097.67
2023-05-20T05:40:10.721Z,100095.56
2023-05-20T05:40:42.799Z,100099.02
2023-05-20T05:41:14.872Z,100094.15
2023-05-20T05:41:47.184Z,100094.48
2023-05-20T05:42:19.307Z,100100.23
2023-05-20T05:42:51.462Z,100098.67
2023-05-20T05:43:23.909Z,100099.34
2023-05-20T05:43:56.165Z,100101.70
2023-05-20T05:44:30.784Z,100101.34
2023-05-20T05:45:03.055Z,100100.63
2023-05-20T05:45:35.606Z,100100.19
2023-05-20T05:46:09.388Z,100099.95
2023-05-20T05:46:41.573Z,100101.46
2023-05-20T05:47:13.747Z,100102.61
2023-05-20T05:47:46.084Z,100099.27
2023-05-20T05:48:18.421Z,100103.48
2023-05-20T05:48:50.679Z,100103.73
2023-05-20T05:49:22.711Z,100101.10
2023-05-20T05:49:55.279Z,100100.39
2023-05-20T05:50:27.382Z,100101.13
2023-05-20T05:50:59.384Z,100103.02
2023-05-20T05:51:31.428Z,100099.38
2023-05-20T05:52:04.029Z,100099.47
2023-05-20T05:52:36.350Z,100101.84
2023-05-20T05:53:09.019Z,100100.73
2023-05-20T05:53:41.177Z,100099.80
2023-05-20T05:54:13.262Z,100099.03
2023-05-20T05:54:45.391Z,100100.60
2023-05-20T05:55:18.200Z,100097.25
2023-05-20T05:55:50.314Z,100097.48
2023-05-20T05:56:22.659Z,100097.72
2023-05-20T05:56:58.521Z,100098.48
2023-05-20T05:57:30.679Z,100099.36
2023-05-20T05:58:02.820Z,100097.81
2023-05-20T05:58:35.422Z,100098.10
2023-05-20T05:59:07.437Z,100097.70
2023-05-20T05:59:39.398Z,100098.02
2023-05-20T06:00:12.153Z,100100.60
2023-05-20T06:00:44.460Z,100097.23
2023-05-20T06:01:16.522Z,100098.77
2023-05-20T06:01:48.969Z,100098.45
2023-05-20T06:02:22.652Z,100103.94
2023-05-20T06:02:55.828Z,100100.59
2023-05-20T06:03:29.855Z,100098.74
2023-05-20T06:04:02.153Z,100101.71
2023-05-20T06:04:34.418Z,100098.80
2023-05-20T06:05:07.683Z,100101.23
2023-05-20T06:05:39.652Z,100098.67
2023-05-20T06:06:11.885Z,100103.34
2023-05-20T06:06:44.042Z,100104.42
2023-05-20T06:07:16.497Z,100100.89
2023-05-20T06:07:48.660Z,100102.38
2023-05-20T06:08:20.926Z,100104.53
2023-05-20T06:08:53.057Z,100105.46
2023-05-20T06:09:25.242Z,100107.73
2023-05-20T06:09:57.370Z,100104.81
2023-05-20T06:10:29.571Z,100107.98
2023-05-20T06:11:01.696Z,100108.09
2023-05-20T06:11:33.863Z,100106.54
2023-05-20T06:12:06.414Z,100107.89
2023-05-20T06:12:38.398Z,100109.05
2023-05-20T06:13:10.701Z,100109.41
2023-05-20T06:13:42.752Z,100108.13
2023-05-20T06:14:14.791Z,100108.95
2023-05-20T06:14:47.579Z,100108.71